Time;durP1;ratioP1;P1;durP2;ratioP2;P2;SDS_P1;SDS_P2;PMS_P1;PMS_P2;Temp;Humidity;BMP_temperature;BMP_pressure;BME280_temperature;BME280_humidity;BME280_pressure;Samples;Min_cycle;Max_cycle;Signal;HPM_P1;HPM_P2
2022/04/30 00:02:06;;;;;;;5.43;2.25;;;;;;;;;;5038248;28;20036;-70
2022/04/30 00:04:46;;;;;;;6.20;2.40;;;;;;;;;;5021073;28;20041;-69
2022/04/30 00:07:14;;;;;;;5.13;2.10;;;;;;;;;;5038488;28;20049;-69
2022/04/30 00:09:42;;;;;;;5.82;2.25;;;;;;;;;;5038707;28;20132;-67
2022/04/30 00:12:09;;;;;;;9.73;2.92;;;;;;;;;;5038907;28;20041;-68
2022/04/30 00:14:37;;;;;;;8.02;2.53;;;;;;;;;;5038886;28;20045;-69
2022/04/30 00:17:04;;;;;;;9.90;2.47;;;;;;;;;;5039893;28;20053;-66
2022/04/30 00:19:32;;;;;;;9.27;2.20;;;;;;;;;;5038913;28;20075;-68
2022/04/30 00:21:58;;;;;;;5.55;1.95;;;;;;;;;;5038343;28;20025;-65
2022/04/30 00:24:26;;;;;;;6.80;2.17;;;;;;;;;;5038970;28;20405;-66
2022/04/30 00:26:53;;;;;;;4.05;1.77;;;;;;;;;;5037961;28;20044;-66
2022/04/30 00:29:20;;;;;;;6.57;1.95;;;;;;;;;;5038302;28;20039;-64
2022/04/30 00:31:48;;;;;;;5.55;1.90;;;;;;;;;;5037009;28;20040;-66
2022/04/30 00:34:14;;;;;;;12.65;2.30;;;;;;;;;;5035589;28;20072;-65
2022/04/30 00:37:03;;;;;;;5.72;1.90;;;;;;;;;;4993145;28;20209;-66
2022/04/30 00:39:32;;;;;;;7.32;2.22;;;;;;;;;;4992191;28;20095;-65
2022/04/30 00:42:00;;;;;;;5.47;1.90;;;;;;;;;;4994133;28;20033;-65
2022/04/30 00:44:27;;;;;;;6.30;2.00;;;;;;;;;;4993319;28;20038;-64
2022/04/30 00:46:54;;;;;;;6.60;1.90;;;;;;;;;;4992243;28;20050;-65
2022/04/30 00:49:21;;;;;;;11.38;2.08;;;;;;;;;;4993488;28;20057;-65
2022/04/30 00:51:49;;;;;;;5.80;2.33;;;;;;;;;;4993664;28;20033;-65
2022/04/30 00:54:19;;;;;;;4.40;2.03;;;;;;;;;;4994255;28;20038;-65
2022/04/30 00:56:51;;;;;;;5.63;1.80;;;;;;;;;;4993325;28;20382;-65
2022/04/30 00:59:18;;;;;;;7.20;2.00;;;;;;;;;;4994078;28;20057;-65
2022/04/30 01:01:46;;;;;;;8.15;2.22;;;;;;;;;;4993805;28;20073;-65
2022/04/30 01:04:16;;;;;;;9.73;2.35;;;;;;;;;;4997049;28;20037;-65
2022/04/30 01:06:51;;;;;;;6.70;2.38;;;;;;;;;;4995111;28;20609;-65
2022/04/30 01:09:20;;;;;;;6.97;1.80;;;;;;;;;;5042375;28;20053;-64
2022/04/30 01:11:48;;;;;;;6.70;1.90;;;;;;;;;;5041201;28;20082;-64
2022/04/30 01:14:15;;;;;;;5.82;1.70;;;;;;;;;;5041321;28;20041;-65
2022/04/30 01:16:43;;;;;;;7.63;2.05;;;;;;;;;;5041655;28;20500;-64
2022/04/30 01:19:10;;;;;;;6.55;1.92;;;;;;;;;;5041470;28;20040;-65
2022/04/30 01:21:38;;;;;;;6.60;1.90;;;;;;;;;;5039686;28;20108;-65
2022/04/30 01:24:06;;;;;;;7.68;2.22;;;;;;;;;;5040325;28;20156;-65
2022/04/30 01:26:32;;;;;;;9.60;2.30;;;;;;;;;;5038527;28;20095;-66
2022/04/30 01:28:59;;;;;;;5.35;2.00;;;;;;;;;;5039551;28;20041;-66
2022/04/30 01:39:41;;;;;;;6.45;2.35;;;;;;;;;;5041277;28;20040;-65
2022/04/30 01:42:14;;;;;;;5.68;2.25;;;;;;;;;;5041336;28;20060;-65
2022/04/30 01:44:44;;;;;;;6.68;2.05;;;;;;;;;;5039287;28;20270;-65
2022/04/30 01:47:11;;;;;;;7.18;2.30;;;;;;;;;;5040050;28;20059;-65
2022/04/30 01:49:37;;;;;;;5.80;2.15;;;;;;;;;;5039057;28;20055;-65
2022/04/30 01:52:13;;;;;;;4.22;2.03;;;;;;;;;;5015049;28;20265;-65
2022/04/30 01:54:40;;;;;;;12.00;2.40;;;;;;;;;;5039933;28;20043;-65
2022/04/30 01:57:07;;;;;;;5.50;1.90;;;;;;;;;;5041286;28;20037;-65
2022/04/30 01:59:33;;;;;;;6.43;2.28;;;;;;;;;;5039023;28;20033;-64
2022/04/30 02:02:01;;;;;;;8.77;2.40;;;;;;;;;;5039735;28;20571;-65
2022/04/30 02:04:28;;;;;;;6.57;2.22;;;;;;;;;;5040153;28;20048;-64
2022/04/30 02:06:56;;;;;;;8.18;2.30;;;;;;;;;;5027892;28;20048;-64
2022/04/30 02:09:23;;;;;;;4.80;2.10;;;;;;;;;;5039293;28;20037;-64
2022/04/30 02:11:50;;;;;;;6.57;2.25;;;;;;;;;;5039995;28;20184;-65
2022/04/30 02:14:18;;;;;;;4.93;2.00;;;;;;;;;;5041000;28;20092;-65
2022/04/30 02:16:46;;;;;;;5.75;2.13;;;;;;;;;;5040117;28;20044;-66
2022/04/30 02:19:13;;;;;;;8.25;2.25;;;;;;;;;;5040194;28;20040;-68
2022/04/30 02:21:40;;;;;;;4.90;2.20;;;;;;;;;;5039186;28;20033;-66
2022/04/30 02:24:08;;;;;;;5.70;2.38;;;;;;;;;;5041022;28;20091;-65
2022/04/30 02:26:34;;;;;;;5.13;2.15;;;;;;;;;;5039042;28;20052;-67
2022/04/30 02:29:01;;;;;;;7.32;2.05;;;;;;;;;;5039721;28;20112;-66
2022/04/30 02:31:28;;;;;;;5.95;2.10;;;;;;;;;;5039062;28;20069;-67
2022/04/30 02:33:56;;;;;;;4.85;2.05;;;;;;;;;;5039672;28;20029;-67
2022/04/30 02:36:26;;;;;;;7.15;2.25;;;;;;;;;;5020286;28;20555;-66
2022/04/30 02:38:56;;;;;;;7.05;2.30;;;;;;;;;;5040786;28;20120;-65
2022/04/30 02:41:24;;;;;;;8.52;2.33;;;;;;;;;;5036644;28;20090;-65
2022/04/30 02:43:51;;;;;;;7.88;2.25;;;;;;;;;;5039392;28;20145;-65
2022/04/30 02:46:19;;;;;;;5.72;2.05;;;;;;;;;;5038970;28;20557;-66
2022/04/30 02:48:46;;;;;;;6.00;2.00;;;;;;;;;;5039175;28;20041;-65
2022/04/30 02:51:15;;;;;;;5.82;1.92;;;;;;;;;;5039820;28;21080;-67
2022/04/30 02:53:42;;;;;;;4.43;2.08;;;;;;;;;;5039183;28;20112;-67
2022/04/30 02:56:12;;;;;;;5.80;2.22;;;;;;;;;;5038933;28;20017;-67
2022/04/30 03:01:24;;;;;;;7.18;2.47;;;;;;;;;;5039004;28;20052;-67
2022/04/30 03:03:51;;;;;;;8.13;2.53;;;;;;;;;;5039122;28;20028;-66
2022/04/30 03:06:18;;;;;;;6.03;2.28;;;;;;;;;;5039260;28;20049;-66
2022/04/30 03:08:49;;;;;;;4.72;1.85;;;;;;;;;;5038886;28;20489;-66
2022/04/30 03:11:19;;;;;;;5.32;2.13;;;;;;;;;;5038327;28;20037;-66
2022/04/30 03:13:46;;;;;;;8.55;2.70;;;;;;;;;;5038552;28;20032;-66
2022/04/30 03:21:46;;;;;;;5.50;2.15;;;;;;;;;;5035218;28;20071;-66
2022/04/30 03:24:18;;;;;;;5.65;2.05;;;;;;;;;;5037407;28;20553;-66
2022/04/30 03:26:48;;;;;;;3.97;1.60;;;;;;;;;;5038033;28;20045;-66
2022/04/30 03:29:16;;;;;;;6.03;2.10;;;;;;;;;;5021576;28;20036;-65
2022/04/30 03:31:43;;;;;;;5.15;1.85;;;;;;;;;;5037916;28;20037;-66
2022/04/30 03:34:10;;;;;;;5.07;1.80;;;;;;;;;;5038992;28;20056;-66
2022/04/30 03:36:38;;;;;;;4.90;1.88;;;;;;;;;;5038160;28;20122;-66
2022/04/30 03:39:05;;;;;;;4.10;1.92;;;;;;;;;;5037910;28;20048;-65
2022/04/30 03:41:32;;;;;;;6.40;1.88;;;;;;;;;;5036271;28;20083;-66
2022/04/30 03:44:00;;;;;;;5.07;2.08;;;;;;;;;;5038699;28;20037;-65
2022/04/30 03:46:27;;;;;;;5.47;2.10;;;;;;;;;;5034204;28;20061;-66
2022/04/30 03:48:56;;;;;;;3.95;1.77;;;;;;;;;;5038470;28;20125;-65
2022/04/30 03:51:23;;;;;;;6.60;2.45;;;;;;;;;;5038355;28;20048;-67
2022/04/30 03:53:50;;;;;;;6.65;2.17;;;;;;;;;;5021187;28;20569;-64
2022/04/30 03:56:17;;;;;;;7.18;2.33;;;;;;;;;;5038265;28;20053;-66
2022/04/30 03:58:46;;;;;;;4.70;2.13;;;;;;;;;;5037773;28;20116;-66
2022/04/30 04:01:13;;;;;;;5.88;2.40;;;;;;;;;;5037484;28;20090;-66
2022/04/30 04:03:41;;;;;;;12.13;2.75;;;;;;;;;;5038208;28;20166;-66
2022/04/30 04:06:08;;;;;;;6.63;1.95;;;;;;;;;;5038382;28;20057;-67
2022/04/30 04:08:35;;;;;;;8.23;2.50;;;;;;;;;;5038227;28;20064;-65
2022/04/30 04:11:02;;;;;;;24.48;3.15;;;;;;;;;;5038636;28;20057;-66
2022/04/30 04:19:00;;;;;;;7.85;2.88;;;;;;;;;;5022736;28;20106;-65
2022/04/30 04:21:26;;;;;;;9.43;3.38;;;;;;;;;;5038134;28;20146;-65
2022/04/30 04:26:38;;;;;;;6.85;2.85;;;;;;;;;;5037255;28;20647;-65
2022/04/30 04:29:05;;;;;;;6.10;2.60;;;;;;;;;;5020510;28;20035;-66
2022/04/30 04:31:32;;;;;;;5.25;2.33;;;;;;;;;;5005637;28;20033;-65
2022/04/30 04:33:59;;;;;;;6.57;2.97;;;;;;;;;;5038380;28;20033;-66
2022/04/30 04:36:25;;;;;;;8.82;2.70;;;;;;;;;;5040311;28;20497;-67
2022/04/30 04:38:52;;;;;;;12.45;3.13;;;;;;;;;;5024119;28;20070;-65
2022/04/30 04:41:19;;;;;;;6.07;2.60;;;;;;;;;;5042189;28;20423;-66
2022/04/30 04:43:46;;;;;;;10.68;3.33;;;;;;;;;;5041721;28;20040;-66
2022/04/30 04:46:13;;;;;;;7.82;3.20;;;;;;;;;;5042726;28;20060;-66
2022/04/30 04:48:40;;;;;;;13.68;4.63;;;;;;;;;;5041126;28;20041;-66
2022/04/30 04:51:07;;;;;;;6.70;2.97;;;;;;;;;;5042201;28;20048;-65
2022/04/30 04:53:34;;;;;;;9.48;3.00;;;;;;;;;;5041009;28;20083;-65
2022/04/30 04:56:03;;;;;;;5.43;2.90;;;;;;;;;;5040330;28;20657;-65
2022/04/30 04:58:30;;;;;;;5.65;2.47;;;;;;;;;;5041036;28;20064;-67
2022/04/30 05:00:57;;;;;;;8.15;2.85;;;;;;;;;;5041813;28;20049;-65
2022/04/30 05:03:23;;;;;;;7.90;2.70;;;;;;;;;;5040589;28;20095;-65
2022/04/30 05:05:51;;;;;;;7.07;2.53;;;;;;;;;;5041953;28;20080;-65
2022/04/30 05:08:18;;;;;;;6.60;2.95;;;;;;;;;;5042654;28;20057;-65
2022/04/30 05:10:45;;;;;;;8.27;3.15;;;;;;;;;;5041198;28;20032;-65
2022/04/30 05:13:11;;;;;;;6.18;2.85;;;;;;;;;;5042633;28;20128;-65
2022/04/30 05:15:39;;;;;;;8.00;3.10;;;;;;;;;;5042679;28;20045;-65
2022/04/30 05:18:07;;;;;;;6.10;2.88;;;;;;;;;;5043942;28;20045;-64
2022/04/30 05:20:34;;;;;;;5.15;2.63;;;;;;;;;;5043592;28;20120;-64
2022/04/30 05:23:01;;;;;;;11.30;3.20;;;;;;;;;;5043021;28;20049;-65
2022/04/30 05:25:27;;;;;;;9.57;3.15;;;;;;;;;;5041297;28;20048;-65
2022/04/30 05:27:54;;;;;;;10.93;3.22;;;;;;;;;;5043175;28;20175;-65
2022/04/30 05:30:21;;;;;;;7.70;3.13;;;;;;;;;;5041174;28;20052;-65
2022/04/30 05:32:47;;;;;;;6.05;2.72;;;;;;;;;;5042180;28;20623;-65
2022/04/30 05:35:14;;;;;;;8.57;3.22;;;;;;;;;;5022284;28;20041;-65
2022/04/30 05:37:41;;;;;;;10.07;2.88;;;;;;;;;;5042038;28;20029;-65
2022/04/30 05:40:08;;;;;;;8.90;2.72;;;;;;;;;;5023779;28;21017;-66
2022/04/30 05:42:35;;;;;;;6.50;2.40;;;;;;;;;;5039692;28;20436;-64
2022/04/30 05:45:01;;;;;;;8.38;3.20;;;;;;;;;;5041549;28;20040;-65
2022/04/30 05:47:28;;;;;;;6.95;3.38;;;;;;;;;;5039619;28;20049;-65
2022/04/30 05:49:55;;;;;;;9.77;3.22;;;;;;;;;;5041629;28;20045;-65
2022/04/30 05:52:21;;;;;;;7.75;3.30;;;;;;;;;;5039899;28;20048;-66
2022/04/30 05:54:48;;;;;;;6.38;3.30;;;;;;;;;;5042270;28;20037;-65
2022/04/30 05:57:15;;;;;;;5.97;3.03;;;;;;;;;;5041338;28;20499;-66
2022/04/30 05:59:41;;;;;;;7.57;3.13;;;;;;;;;;5022166;28;20033;-66
2022/04/30 06:02:08;;;;;;;6.50;3.15;;;;;;;;;;5040785;28;20037;-66
2022/04/30 06:04:35;;;;;;;6.25;2.67;;;;;;;;;;5039973;28;20088;-66
2022/04/30 06:07:01;;;;;;;5.95;2.80;;;;;;;;;;5041365;28;20053;-65
2022/04/30 06:09:28;;;;;;;7.07;3.28;;;;;;;;;;5040989;28;20040;-66
2022/04/30 06:11:55;;;;;;;8.80;3.28;;;;;;;;;;5040144;28;20083;-65
2022/04/30 06:14:22;;;;;;;7.18;3.80;;;;;;;;;;5040543;28;20144;-66
2022/04/30 06:16:48;;;;;;;6.30;2.95;;;;;;;;;;5042015;28;20036;-65
2022/04/30 06:19:15;;;;;;;11.27;3.55;;;;;;;;;;5040569;28;20048;-65
2022/04/30 06:21:44;;;;;;;7.20;3.55;;;;;;;;;;5041079;28;20099;-66
2022/04/30 06:24:10;;;;;;;11.48;4.22;;;;;;;;;;5022433;28;20073;-65
2022/04/30 06:26:37;;;;;;;8.60;4.03;;;;;;;;;;5020324;28;20057;-66
2022/04/30 06:29:04;;;;;;;10.77;4.25;;;;;;;;;;5021364;28;20033;-66
2022/04/30 06:31:30;;;;;;;6.68;3.17;;;;;;;;;;5019789;28;20045;-64
2022/04/30 06:33:58;;;;;;;11.65;3.90;;;;;;;;;;5020686;28;20048;-65
2022/04/30 06:36:24;;;;;;;7.72;3.45;;;;;;;;;;5019559;28;20037;-66
2022/04/30 06:38:52;;;;;;;13.23;4.72;;;;;;;;;;5021075;28;20073;-66
2022/04/30 06:41:19;;;;;;;10.68;4.65;;;;;;;;;;5019765;28;20087;-65
2022/04/30 06:43:46;;;;;;;11.10;4.45;;;;;;;;;;5020058;28;20387;-65
2022/04/30 06:46:13;;;;;;;13.00;6.13;;;;;;;;;;5021133;28;20049;-66
2022/04/30 06:48:40;;;;;;;14.30;6.28;;;;;;;;;;5018727;28;20037;-66
2022/04/30 06:51:06;;;;;;;17.88;7.30;;;;;;;;;;5019105;28;20044;-66
2022/04/30 06:59:09;;;;;;;17.77;9.95;;;;;;;;;;5019625;28;20721;-66
2022/04/30 07:04:24;;;;;;;19.60;9.52;;;;;;;;;;5018478;28;20052;-65
2022/04/30 07:06:51;;;;;;;17.15;9.75;;;;;;;;;;5019034;28;20065;-66
2022/04/30 07:09:18;;;;;;;18.75;8.30;;;;;;;;;;4999743;28;20033;-66
2022/04/30 07:11:45;;;;;;;11.00;6.78;;;;;;;;;;5017555;28;20038;-66
2022/04/30 07:14:12;;;;;;;14.93;6.90;;;;;;;;;;5019371;28;20052;-65
2022/04/30 07:16:38;;;;;;;17.40;6.78;;;;;;;;;;5018614;28;20508;-65
2022/04/30 07:19:05;;;;;;;12.75;6.78;;;;;;;;;;5019328;28;20048;-65
2022/04/30 07:21:33;;;;;;;13.85;7.45;;;;;;;;;;5019255;28;20038;-65
2022/04/30 07:24:00;;;;;;;16.77;7.13;;;;;;;;;;5037530;28;20053;-65
2022/04/30 07:26:27;;;;;;;12.70;6.90;;;;;;;;;;5038946;28;20383;-65
2022/04/30 07:28:54;;;;;;;21.70;7.53;;;;;;;;;;5039082;28;20045;-65
2022/04/30 07:31:21;;;;;;;14.02;7.47;;;;;;;;;;5037932;28;20041;-65
2022/04/30 07:33:49;;;;;;;16.45;9.27;;;;;;;;;;5038688;28;20122;-65
2022/04/30 07:36:16;;;;;;;16.20;9.90;;;;;;;;;;5039238;28;20055;-64
2022/04/30 07:38:43;;;;;;;18.35;10.57;;;;;;;;;;5038701;28;20501;-64
2022/04/30 07:41:10;;;;;;;20.42;11.25;;;;;;;;;;5039328;28;20044;-64
2022/04/30 07:43:36;;;;;;;16.83;8.95;;;;;;;;;;5037845;28;20490;-63
2022/04/30 07:46:03;;;;;;;16.52;8.25;;;;;;;;;;5038678;28;20142;-65
2022/04/30 07:48:30;;;;;;;19.17;8.02;;;;;;;;;;5037709;28;20039;-64
2022/04/30 07:50:58;;;;;;;15.27;7.05;;;;;;;;;;5038206;28;20049;-64
2022/04/30 07:53:25;;;;;;;14.00;7.72;;;;;;;;;;5037879;28;20045;-64
2022/04/30 07:55:55;;;;;;;13.98;7.40;;;;;;;;;;5011077;28;20048;-65
2022/04/30 07:58:24;;;;;;;17.65;7.13;;;;;;;;;;5035703;28;20136;-65
2022/04/30 08:00:51;;;;;;;13.93;6.90;;;;;;;;;;5037384;28;20033;-64
2022/04/30 08:03:17;;;;;;;10.90;5.00;;;;;;;;;;5038229;28;20113;-65
2022/04/30 08:05:44;;;;;;;11.85;5.50;;;;;;;;;;5037516;28;20052;-64
2022/04/30 08:08:11;;;;;;;10.20;2.20;;;;;;;;;;5038224;28;20044;-64
2022/04/30 08:10:37;;;;;;;6.85;3.15;;;;;;;;;;5036742;28;20048;-64
2022/04/30 08:13:06;;;;;;;13.00;3.65;;;;;;;;;;5037565;28;20682;-64
2022/04/30 08:15:32;;;;;;;9.57;3.58;;;;;;;;;;5036128;28;20060;-64
2022/04/30 08:17:59;;;;;;;9.77;3.15;;;;;;;;;;5038574;28;20140;-64
2022/04/30 08:20:26;;;;;;;6.45;3.20;;;;;;;;;;5037901;28;20033;-65
2022/04/30 08:22:52;;;;;;;6.00;3.08;;;;;;;;;;5029452;28;20235;-63
2022/04/30 08:25:19;;;;;;;7.13;2.30;;;;;;;;;;5018967;28;20934;-64
2022/04/30 08:27:46;;;;;;;4.60;2.28;;;;;;;;;;5017946;28;20072;-64
2022/04/30 08:30:13;;;;;;;4.85;2.38;;;;;;;;;;5015406;28;20033;-65
2022/04/30 08:32:40;;;;;;;6.03;2.40;;;;;;;;;;5016850;28;20068;-65
2022/04/30 08:35:06;;;;;;;6.57;2.72;;;;;;;;;;5000437;28;20493;-64
2022/04/30 08:37:33;;;;;;;4.72;2.30;;;;;;;;;;5017293;28;20034;-65
2022/04/30 08:40:00;;;;;;;7.15;2.35;;;;;;;;;;5018105;28;20541;-65
2022/04/30 08:42:26;;;;;;;4.50;1.92;;;;;;;;;;5016562;28;20037;-65
2022/04/30 08:44:55;;;;;;;4.63;2.50;;;;;;;;;;5016484;28;20100;-64
2022/04/30 08:47:22;;;;;;;6.18;2.55;;;;;;;;;;4999610;28;20109;-64
2022/04/30 08:49:49;;;;;;;7.93;2.42;;;;;;;;;;5018433;28;20041;-64
2022/04/30 08:52:16;;;;;;;4.10;1.85;;;;;;;;;;5017277;28;20042;-65
2022/04/30 08:54:43;;;;;;;5.25;2.50;;;;;;;;;;5017657;28;20410;-64
2022/04/30 08:57:10;;;;;;;6.72;2.40;;;;;;;;;;5017201;28;20125;-64
2022/04/30 08:59:37;;;;;;;4.05;2.00;;;;;;;;;;5016528;28;20049;-64
2022/04/30 09:02:08;;;;;;;4.50;1.90;;;;;;;;;;5016776;28;20095;-64
2022/04/30 09:04:43;;;;;;;6.07;2.20;;;;;;;;;;5016720;28;20035;-64
2022/04/30 09:07:13;;;;;;;5.25;1.88;;;;;;;;;;5018221;28;20085;-65
2022/04/30 09:09:40;;;;;;;6.30;1.85;;;;;;;;;;5018282;28;20601;-64
2022/04/30 09:12:08;;;;;;;6.53;2.67;;;;;;;;;;5018189;28;20109;-64
2022/04/30 09:14:35;;;;;;;4.22;1.85;;;;;;;;;;5017357;28;20050;-64
2022/04/30 09:17:03;;;;;;;5.45;2.33;;;;;;;;;;5018108;28;20499;-64
2022/04/30 09:19:29;;;;;;;4.53;2.17;;;;;;;;;;5016065;28;20042;-65
2022/04/30 09:21:56;;;;;;;5.70;2.35;;;;;;;;;;5018086;28;20544;-64
2022/04/30 09:24:23;;;;;;;4.82;2.03;;;;;;;;;;5040458;28;20714;-65
2022/04/30 09:26:52;;;;;;;5.57;2.50;;;;;;;;;;5040709;28;20082;-66
2022/04/30 09:29:25;;;;;;;4.93;2.50;;;;;;;;;;5014338;28;20041;-65
2022/04/30 09:31:53;;;;;;;6.55;2.47;;;;;;;;;;5040136;28;20044;-65
2022/04/30 09:39:53;;;;;;;8.90;2.92;;;;;;;;;;5040619;28;20072;-65
2022/04/30 09:42:19;;;;;;;6.20;2.47;;;;;;;;;;5039684;28;20037;-65
2022/04/30 09:44:46;;;;;;;5.28;2.63;;;;;;;;;;5040997;28;20136;-65
2022/04/30 09:47:13;;;;;;;10.50;3.10;;;;;;;;;;5041097;28;20063;-65
2022/04/30 09:55:10;;;;;;;4.53;2.45;;;;;;;;;;5040852;28;20084;-65
2022/04/30 09:57:37;;;;;;;7.97;2.85;;;;;;;;;;5039460;28;20071;-65
2022/04/30 10:00:04;;;;;;;6.63;2.72;;;;;;;;;;5040150;28;20043;-64
2022/04/30 10:02:32;;;;;;;5.35;2.65;;;;;;;;;;5039357;28;21037;-65
2022/04/30 10:05:03;;;;;;;6.63;2.85;;;;;;;;;;5040029;28;20040;-64
2022/04/30 10:07:33;;;;;;;7.53;2.88;;;;;;;;;;5039479;28;20102;-65
2022/04/30 10:10:09;;;;;;;5.32;2.55;;;;;;;;;;5040943;28;20041;-64
2022/04/30 10:12:40;;;;;;;6.57;2.85;;;;;;;;;;5038935;28;20079;-65
2022/04/30 10:15:07;;;;;;;6.72;2.83;;;;;;;;;;5040264;28;20052;-64
2022/04/30 10:17:36;;;;;;;8.07;3.00;;;;;;;;;;5039396;28;20041;-64
2022/04/30 10:20:07;;;;;;;6.88;2.90;;;;;;;;;;5041142;28;20116;-65
2022/04/30 10:22:35;;;;;;;6.97;2.80;;;;;;;;;;5040049;28;20057;-64
2022/04/30 10:25:02;;;;;;;5.85;3.03;;;;;;;;;;5041662;28;20548;-64
2022/04/30 10:27:42;;;;;;;6.00;3.25;;;;;;;;;;5039621;28;20045;-65
2022/04/30 10:30:29;;;;;;;5.57;2.92;;;;;;;;;;5040918;28;20065;-65
2022/04/30 10:33:00;;;;;;;6.13;2.70;;;;;;;;;;5039690;28;20044;-65
2022/04/30 10:35:31;;;;;;;6.25;3.00;;;;;;;;;;5040190;28;20045;-65
2022/04/30 10:38:09;;;;;;;5.85;3.10;;;;;;;;;;5040631;28;20045;-65
2022/04/30 10:41:01;;;;;;;5.55;2.95;;;;;;;;;;5039708;28;20067;-66
2022/04/30 10:43:34;;;;;;;5.00;2.50;;;;;;;;;;5036535;28;20041;-65
2022/04/30 10:46:03;;;;;;;5.73;2.90;;;;;;;;;;5040652;28;20874;-65
2022/04/30 10:48:29;;;;;;;7.68;3.22;;;;;;;;;;5040684;28;20270;-65
2022/04/30 10:51:02;;;;;;;8.77;3.10;;;;;;;;;;5040371;28;20068;-65
2022/04/30 10:53:29;;;;;;;5.63;3.20;;;;;;;;;;5039844;28;20593;-64
2022/04/30 10:55:56;;;;;;;5.80;3.05;;;;;;;;;;5040338;28;20037;-65
2022/04/30 10:58:26;;;;;;;10.40;3.05;;;;;;;;;;5039604;28;20041;-69
2022/04/30 11:00:53;;;;;;;7.43;3.05;;;;;;;;;;5040921;28;20048;-65
2022/04/30 11:03:26;;;;;;;6.65;3.15;;;;;;;;;;5039547;28;20029;-64
2022/04/30 11:05:53;;;;;;;11.07;2.92;;;;;;;;;;5040003;28;20460;-64
2022/04/30 11:08:20;;;;;;;5.78;2.65;;;;;;;;;;5039090;28;20102;-64
2022/04/30 11:10:51;;;;;;;6.53;2.72;;;;;;;;;;5039069;28;20103;-63
2022/04/30 11:13:18;;;;;;;4.72;2.47;;;;;;;;;;5038784;28;20060;-64
2022/04/30 11:15:44;;;;;;;6.32;3.40;;;;;;;;;;5036769;28;20037;-63
2022/04/30 11:18:11;;;;;;;5.70;2.53;;;;;;;;;;5021614;28;20464;-65
2022/04/30 11:20:38;;;;;;;4.80;2.90;;;;;;;;;;5037238;28;20112;-65
2022/04/30 11:23:05;;;;;;;6.63;3.45;;;;;;;;;;5039119;28;20821;-64
2022/04/30 11:25:39;;;;;;;6.10;3.15;;;;;;;;;;5037755;28;20076;-64
2022/04/30 11:28:09;;;;;;;6.40;3.53;;;;;;;;;;5038713;28;20045;-63
2022/04/30 11:30:39;;;;;;;6.57;3.75;;;;;;;;;;5037927;28;20417;-63
2022/04/30 11:33:06;;;;;;;6.18;3.08;;;;;;;;;;5037500;28;20050;-63
2022/04/30 11:35:33;;;;;;;6.43;3.03;;;;;;;;;;5036942;28;20037;-64
2022/04/30 11:38:00;;;;;;;6.72;3.50;;;;;;;;;;5038504;28;20045;-65
2022/04/30 11:40:27;;;;;;;8.35;3.75;;;;;;;;;;5036989;28;20048;-64
2022/04/30 11:42:57;;;;;;;6.30;3.72;;;;;;;;;;5037785;28;20595;-64
2022/04/30 11:45:29;;;;;;;5.72;2.97;;;;;;;;;;5033985;28;20105;-64
2022/04/30 11:47:56;;;;;;;8.73;3.78;;;;;;;;;;5039000;28;20045;-64
2022/04/30 11:50:23;;;;;;;6.10;3.60;;;;;;;;;;5038023;28;20051;-64
2022/04/30 11:52:50;;;;;;;6.85;3.88;;;;;;;;;;5038616;28;20064;-64
2022/04/30 11:55:17;;;;;;;8.93;3.58;;;;;;;;;;5038402;28;20041;-64
2022/04/30 11:57:44;;;;;;;10.85;3.33;;;;;;;;;;5035540;28;20639;-64
2022/04/30 12:00:11;;;;;;;8.98;4.03;;;;;;;;;;5036818;28;20107;-64
2022/04/30 12:02:39;;;;;;;9.40;4.32;;;;;;;;;;5036487;28;20048;-64
2022/04/30 12:05:06;;;;;;;8.88;3.55;;;;;;;;;;5037410;28;20041;-64
2022/04/30 12:07:43;;;;;;;5.88;3.13;;;;;;;;;;5036733;28;20057;-64
2022/04/30 12:10:17;;;;;;;6.18;3.58;;;;;;;;;;5038470;28;20095;-64
2022/04/30 12:12:43;;;;;;;9.60;4.20;;;;;;;;;;5036729;28;20040;-64
2022/04/30 12:15:18;;;;;;;7.18;3.83;;;;;;;;;;5021560;28;20040;-64
2022/04/30 12:17:45;;;;;;;8.85;4.10;;;;;;;;;;5038513;28;20497;-64
2022/04/30 12:25:49;;;;;;;11.48;4.47;;;;;;;;;;5036539;28;20391;-64
2022/04/30 12:28:17;;;;;;;8.63;4.15;;;;;;;;;;5020324;28;20033;-64
2022/04/30 12:30:50;;;;;;;8.48;4.10;;;;;;;;;;5036313;28;20063;-64
2022/04/30 12:33:17;;;;;;;9.40;4.03;;;;;;;;;;5038335;28;20064;-64
2022/04/30 12:35:44;;;;;;;10.30;4.60;;;;;;;;;;5038053;28;20048;-64
2022/04/30 12:38:16;;;;;;;10.75;4.55;;;;;;;;;;5040253;28;20140;-64
2022/04/30 12:40:50;;;;;;;8.00;4.45;;;;;;;;;;5037925;28;20053;-64
2022/04/30 12:43:18;;;;;;;8.05;4.18;;;;;;;;;;5038113;28;20041;-63
2022/04/30 12:45:46;;;;;;;11.57;3.88;;;;;;;;;;5036346;28;20052;-63
2022/04/30 12:48:14;;;;;;;9.02;3.92;;;;;;;;;;5036924;28;20127;-64
2022/04/30 12:50:41;;;;;;;9.00;4.13;;;;;;;;;;5034932;28;20045;-64
2022/04/30 12:53:11;;;;;;;6.60;3.90;;;;;;;;;;5036540;28;20047;-64
2022/04/30 12:55:41;;;;;;;8.18;3.90;;;;;;;;;;5036591;28;20061;-64
2022/04/30 12:58:09;;;;;;;7.60;4.05;;;;;;;;;;5041702;28;20070;-64
2022/04/30 13:00:36;;;;;;;8.68;4.65;;;;;;;;;;5041067;28;20033;-64
2022/04/30 13:03:02;;;;;;;8.88;4.63;;;;;;;;;;5042549;28;20060;-64
2022/04/30 13:05:29;;;;;;;10.05;4.50;;;;;;;;;;5041365;28;20611;-64
2022/04/30 13:07:56;;;;;;;7.38;4.10;;;;;;;;;;5042012;28;20055;-64
2022/04/30 13:15:53;;;;;;;11.20;3.83;;;;;;;;;;5042861;28;20105;-64
2022/04/30 13:18:21;;;;;;;8.75;4.57;;;;;;;;;;5042711;28;20037;-64
2022/04/30 13:20:48;;;;;;;9.20;4.13;;;;;;;;;;5044627;28;20460;-64
2022/04/30 13:23:14;;;;;;;10.00;4.00;;;;;;;;;;5027568;28;20049;-64
2022/04/30 13:25:41;;;;;;;10.15;4.47;;;;;;;;;;5044619;28;20036;-64
2022/04/30 13:28:08;;;;;;;8.93;4.45;;;;;;;;;;5045829;28;20049;-64
2022/04/30 13:30:35;;;;;;;10.65;4.80;;;;;;;;;;5043188;28;20120;-63
2022/04/30 13:33:02;;;;;;;6.85;4.10;;;;;;;;;;5043031;28;20568;-63
2022/04/30 13:35:29;;;;;;;8.05;4.18;;;;;;;;;;5043719;28;20095;-63
2022/04/30 13:37:56;;;;;;;9.15;4.82;;;;;;;;;;5044321;28;20036;-64
2022/04/30 13:40:22;;;;;;;30.15;3.95;;;;;;;;;;5037574;28;20029;-64
2022/04/30 13:42:49;;;;;;;7.35;4.28;;;;;;;;;;5042539;28;20033;-64
2022/04/30 13:45:16;;;;;;;8.05;3.80;;;;;;;;;;5026170;28;20037;-64
2022/04/30 13:47:43;;;;;;;7.97;4.03;;;;;;;;;;5042578;28;20071;-65
2022/04/30 13:50:10;;;;;;;8.85;3.28;;;;;;;;;;5024943;28;20041;-64
2022/04/30 13:52:38;;;;;;;8.43;4.32;;;;;;;;;;5042584;28;20041;-64
2022/04/30 13:55:09;;;;;;;7.88;4.05;;;;;;;;;;5041254;28;20138;-64
2022/04/30 13:57:37;;;;;;;8.18;4.75;;;;;;;;;;5041656;28;20124;-64
2022/04/30 14:00:06;;;;;;;8.55;4.15;;;;;;;;;;5023632;28;20041;-64
2022/04/30 14:02:32;;;;;;;8.98;5.10;;;;;;;;;;5040738;28;21690;-63
2022/04/30 14:04:59;;;;;;;6.47;4.18;;;;;;;;;;5016385;28;20924;-64
2022/04/30 14:07:26;;;;;;;7.68;4.40;;;;;;;;;;5038991;28;20052;-64
2022/04/30 14:09:53;;;;;;;7.30;3.90;;;;;;;;;;5039025;28;20070;-63
2022/04/30 14:12:20;;;;;;;8.35;4.45;;;;;;;;;;5040915;28;20033;-65
2022/04/30 14:14:56;;;;;;;7.28;4.30;;;;;;;;;;5041260;28;20470;-64
2022/04/30 14:20:11;;;;;;;7.22;3.92;;;;;;;;;;5041009;28;20079;-65
2022/04/30 14:22:38;;;;;;;9.48;4.57;;;;;;;;;;5040297;28;20057;-65
2022/04/30 14:25:13;;;;;;;10.60;4.32;;;;;;;;;;5040487;28;20041;-66
2022/04/30 14:27:41;;;;;;;8.25;4.57;;;;;;;;;;5040695;28;20056;-66
2022/04/30 14:30:09;;;;;;;9.45;4.80;;;;;;;;;;5040293;28;20056;-64
2022/04/30 14:32:36;;;;;;;9.43;4.55;;;;;;;;;;5039621;28;20067;-63
2022/04/30 14:35:04;;;;;;;11.40;4.85;;;;;;;;;;5040942;28;20067;-65
2022/04/30 14:37:32;;;;;;;7.75;4.53;;;;;;;;;;5038890;28;20033;-64
2022/04/30 14:40:00;;;;;;;7.85;4.15;;;;;;;;;;5039729;28;20041;-65
2022/04/30 14:42:27;;;;;;;8.73;4.38;;;;;;;;;;5039639;28;20029;-62
2022/04/30 14:44:54;;;;;;;10.88;4.68;;;;;;;;;;5038376;28;20041;-63
2022/04/30 14:47:21;;;;;;;11.65;4.28;;;;;;;;;;5039238;28;20328;-62
2022/04/30 14:49:49;;;;;;;6.65;3.72;;;;;;;;;;5039985;28;20087;-62
2022/04/30 14:52:15;;;;;;;6.00;3.58;;;;;;;;;;5039760;28;20142;-63
2022/04/30 14:54:43;;;;;;;6.70;3.83;;;;;;;;;;5037625;28;20406;-65
2022/04/30 14:57:10;;;;;;;8.07;3.58;;;;;;;;;;5039129;28;20036;-65
2022/04/30 14:59:37;;;;;;;13.15;3.72;;;;;;;;;;5037917;28;20028;-65
2022/04/30 15:02:03;;;;;;;8.57;3.50;;;;;;;;;;5039854;28;20098;-65
2022/04/30 15:04:31;;;;;;;8.23;3.65;;;;;;;;;;5020816;28;20052;-65
2022/04/30 15:06:59;;;;;;;7.53;3.65;;;;;;;;;;5021579;28;20056;-67
2022/04/30 15:09:27;;;;;;;8.18;3.85;;;;;;;;;;5039066;28;20132;-63
2022/04/30 15:11:53;;;;;;;11.45;3.38;;;;;;;;;;5039017;28;20056;-63
2022/04/30 15:14:20;;;;;;;7.43;3.58;;;;;;;;;;5038557;28;20041;-64
2022/04/30 15:16:47;;;;;;;7.85;3.78;;;;;;;;;;5039209;28;20029;-64
2022/04/30 15:19:15;;;;;;;6.35;3.25;;;;;;;;;;5040325;28;20087;-65
2022/04/30 15:21:42;;;;;;;8.88;3.50;;;;;;;;;;5038895;28;20049;-65
2022/04/30 15:24:09;;;;;;;10.50;3.80;;;;;;;;;;5020248;28;20059;-65
2022/04/30 15:26:37;;;;;;;9.30;2.97;;;;;;;;;;5018890;28;20629;-65
2022/04/30 15:29:04;;;;;;;9.57;3.17;;;;;;;;;;5020006;28;20037;-65
2022/04/30 15:31:31;;;;;;;6.68;3.78;;;;;;;;;;5016963;28;20101;-65
2022/04/30 15:33:57;;;;;;;10.05;3.70;;;;;;;;;;5018554;28;20037;-65
2022/04/30 15:36:25;;;;;;;7.88;3.58;;;;;;;;;;5018259;28;20037;-64
2022/04/30 15:38:51;;;;;;;7.32;2.83;;;;;;;;;;5019834;28;20133;-64
2022/04/30 15:41:21;;;;;;;9.38;3.30;;;;;;;;;;5018215;28;20041;-65
2022/04/30 15:43:48;;;;;;;9.00;3.25;;;;;;;;;;5018540;28;20044;-66